createdAt,value
2023-08-05T00:00:59.049Z,0.00
2023-08-05T00:01:59.067Z,0.00
2023-08-05T00:02:59.049Z,0.00
2023-08-05T00:03:58.404Z,0.00
2023-08-05T00:04:59.020Z,0.00
2023-08-05T00:05:58.324Z,0.00
2023-08-05T00:06:58.987Z,0.00
2023-08-05T00:07:58.959Z,0.00
2023-08-05T00:08:58.964Z,0.00
2023-08-05T00:09:58.258Z,0.00
2023-08-05T00:10:58.940Z,0.00
2023-08-05T00:11:58.303Z,0.00
2023-08-05T00:12:58.239Z,0.00
2023-08-05T00:13:58.914Z,0.00
2023-08-05T00:14:58.891Z,0.00
2023-08-05T00:15:58.906Z,0.00
2023-08-05T00:16:58.857Z,0.00
2023-08-05T00:17:58.227Z,0.00
2023-08-05T00:18:58.143Z,0.00
2023-08-05T00:19:58.166Z,0.00
2023-08-05T00:20:58.141Z,0.00
2023-08-05T00:21:58.150Z,0.00
2023-08-05T00:22:58.808Z,0.00
2023-08-05T00:23:58.872Z,0.00
2023-08-05T00:24:58.791Z,0.00
2023-08-05T00:25:58.767Z,0.00
2023-08-05T00:26:58.746Z,0.00
2023-08-05T00:27:58.770Z,0.00
2023-08-05T00:28:58.059Z,0.00
2023-08-05T00:29:58.727Z,0.00
2023-08-05T00:30:58.708Z,0.00
2023-08-05T00:31:58.063Z,0.00
2023-08-05T00:32:58.710Z,0.00
2023-08-05T00:33:58.720Z,0.00
2023-08-05T00:34:58.037Z,0.00
2023-08-05T00:35:58.657Z,0.00
2023-08-05T00:36:58.015Z,0.00
2023-08-05T00:37:58.647Z,0.00
2023-08-05T00:38:58.637Z,0.00
2023-08-05T00:39:57.962Z,0.00
2023-08-05T00:40:57.968Z,0.00
2023-08-05T00:41:58.633Z,0.00
2023-08-05T00:42:58.598Z,0.00
2023-08-05T00:43:57.884Z,0.00
2023-08-05T00:44:57.901Z,0.00
2023-08-05T00:45:58.587Z,0.00
2023-08-05T00:46:58.565Z,0.00
2023-08-05T00:47:58.583Z,0.00
2023-08-05T00:48:58.530Z,0.00
2023-08-05T00:49:58.511Z,0.00
2023-08-05T00:50:58.506Z,0.00
2023-08-05T00:51:57.829Z,0.00
2023-08-05T00:52:58.487Z,0.00
2023-08-05T00:53:58.466Z,0.00
2023-08-05T00:54:57.858Z,0.00
2023-08-05T00:55:58.444Z,0.00
2023-08-05T00:56:58.441Z,0.00
2023-08-05T00:57:58.434Z,0.00
2023-08-05T00:58:57.750Z,0.00
2023-08-05T00:59:58.409Z,0.00
2023-08-05T01:00:57.706Z,0.00
2023-08-05T01:01:57.769Z,0.00
2023-08-05T01:02:58.472Z,0.00
2023-08-05T01:03:58.344Z,0.00
2023-08-05T01:04:57.685Z,0.00
2023-08-05T01:05:58.362Z,0.00
2023-08-05T01:06:58.392Z,0.00
2023-08-05T01:07:57.654Z,0.00
2023-08-05T01:08:58.624Z,0.00
2023-08-05T01:09:58.309Z,0.00
2023-08-05T01:10:58.288Z,0.00
2023-08-05T01:11:58.286Z,0.00
2023-08-05T01:12:58.251Z,0.00
2023-08-05T01:13:58.274Z,0.00
2023-08-05T01:14:58.253Z,0.00
2023-08-05T01:15:58.283Z,0.00
2023-08-05T01:16:58.210Z,0.00
2023-08-05T01:17:58.374Z,0.00
2023-08-05T01:18:57.516Z,0.00
2023-08-05T01:19:58.194Z,0.00
2023-08-05T01:20:58.180Z,0.00
2023-08-05T01:21:58.154Z,0.00
2023-08-05T01:22:58.238Z,0.00
2023-08-05T01:23:58.149Z,0.00
2023-08-05T01:24:57.440Z,0.00
2023-08-05T01:25:58.131Z,0.00
2023-08-05T01:26:58.112Z,0.00
2023-08-05T01:27:58.107Z,0.00
2023-08-05T01:28:58.123Z,0.00
2023-08-05T01:29:58.094Z,0.00
2023-08-05T01:30:58.133Z,0.00
2023-08-05T01:31:58.052Z,0.00
2023-08-05T01:32:57.486Z,0.00
2023-08-05T01:33:57.363Z,0.00
2023-08-05T01:34:58.037Z,0.00
2023-08-05T01:35:57.342Z,0.00
2023-08-05T01:36:58.023Z,0.00
2023-08-05T01:37:58.007Z,0.00
2023-08-05T01:38:57.992Z,0.00
2023-08-05T01:39:57.981Z,0.00
2023-08-05T01:40:57.956Z,0.00
2023-08-05T01:41:57.956Z,0.00
2023-08-05T01:42:57.947Z,0.00
2023-08-05T01:43:57.941Z,0.00
2023-08-05T01:44:57.251Z,0.00
2023-08-05T01:45:57.241Z,0.00
2023-08-05T01:46:57.253Z,0.00
2023-08-05T01:47:57.223Z,0.00
2023-08-05T01:48:57.881Z,0.00
2023-08-05T01:49:57.856Z,0.00
2023-08-05T01:50:57.163Z,0.00
2023-08-05T01:51:57.848Z,0.00
2023-08-05T01:52:57.843Z,0.00
2023-08-05T01:53:57.132Z,0.00
2023-08-05T01:54:57.142Z,0.00
2023-08-05T01:55:57.812Z,0.00
2023-08-05T01:56:57.113Z,0.00
2023-08-05T01:57:57.790Z,0.00
2023-08-05T01:58:57.759Z,0.00
2023-08-05T01:59:57.092Z,0.00
2023-08-05T02:00:57.836Z,0.00
2023-08-05T02:01:57.770Z,0.00
2023-08-05T02:02:57.875Z,0.00
2023-08-05T02:03:57.749Z,0.00
2023-08-05T02:04:57.712Z,0.00
2023-08-05T02:05:57.031Z,0.00
2023-08-05T02:06:57.689Z,0.00
2023-08-05T02:07:57.649Z,0.00
2023-08-05T02:08:57.653Z,0.00
2023-08-05T02:09:56.973Z,0.00
2023-08-05T02:10:57.026Z,0.00
2023-08-05T02:11:56.986Z,0.00
2023-08-05T02:12:57.025Z,0.00
2023-08-05T02:13:57.597Z,0.00
2023-08-05T02:14:57.603Z,0.00
2023-08-05T02:15:57.613Z,0.00
2023-08-05T02:16:56.925Z,0.00
2023-08-05T02:17:56.918Z,0.00
2023-08-05T02:18:57.558Z,0.00
2023-08-05T02:19:57.551Z,0.00
2023-08-05T02:20:57.545Z,0.00
2023-08-05T02:21:56.859Z,0.00
2023-08-05T02:22:57.506Z,0.00
2023-08-05T02:23:57.516Z,0.00
2023-08-05T02:24:57.499Z,0.00
2023-08-05T02:25:57.481Z,0.00
2023-08-05T02:26:57.464Z,0.00
2023-08-05T02:27:56.773Z,0.00
2023-08-05T02:28:57.449Z,0.00
2023-08-05T02:29:57.445Z,0.00
2023-08-05T02:30:57.438Z,0.00
2023-08-05T02:31:57.402Z,0.00
2023-08-05T02:32:57.466Z,0.00
2023-08-05T02:33:57.401Z,0.00
2023-08-05T02:34:57.387Z,0.00
2023-08-05T02:35:57.364Z,0.00
2023-08-05T02:36:57.347Z,0.00
2023-08-05T02:37:57.355Z,0.00
2023-08-05T02:38:57.620Z,0.00
2023-08-05T02:39:56.645Z,0.00
2023-08-05T02:40:56.651Z,0.00
2023-08-05T02:41:57.315Z,0.00
2023-08-05T02:42:56.610Z,0.00
2023-08-05T02:43:57.338Z,0.00
2023-08-05T02:44:56.591Z,0.00
2023-08-05T02:45:56.699Z,0.00
2023-08-05T02:46:57.258Z,0.00
2023-08-05T02:47:57.330Z,0.00
2023-08-05T02:48:57.303Z,0.00
2023-08-05T02:49:56.562Z,0.00
2023-08-05T02:50:56.555Z,0.00
2023-08-05T02:51:57.240Z,0.00
2023-08-05T02:52:57.272Z,0.00
2023-08-05T02:53:57.177Z,0.00
2023-08-05T02:54:56.489Z,0.00
2023-08-05T02:55:57.306Z,0.00
2023-08-05T02:56:56.451Z,0.00
2023-08-05T02:57:56.446Z,0.00
2023-08-05T02:58:57.132Z,0.00
2023-08-05T02:59:56.440Z,0.00
2023-08-05T03:00:57.100Z,0.00
2023-08-05T03:01:57.133Z,0.00
2023-08-05T03:02:56.418Z,0.00
2023-08-05T03:03:56.413Z,0.00
2023-08-05T03:04:56.381Z,0.00
2023-08-05T03:05:57.090Z,0.00
2023-08-05T03:06:56.343Z,0.00
2023-08-05T03:07:57.030Z,0.00
2023-08-05T03:08:57.001Z,0.00
2023-08-05T03:09:57.010Z,0.00
2023-08-05T03:10:57.029Z,0.00
2023-08-05T03:11:56.980Z,0.00
2023-08-05T03:12:56.996Z,0.00
2023-08-05T03:13:56.275Z,0.00
2023-08-05T03:14:56.953Z,0.00
2023-08-05T03:15:57.048Z,0.00
2023-08-05T03:16:56.925Z,4.00
2023-08-05T03:17:56.930Z,4.00
2023-08-05T03:18:56.228Z,0.00
2023-08-05T03:19:56.896Z,0.00
2023-08-05T03:20:56.203Z,0.00
2023-08-05T03:21:56.875Z,4.00
2023-08-05T03:22:56.194Z,4.00
2023-08-05T03:23:56.174Z,4.00
2023-08-05T03:24:56.836Z,4.00
2023-08-05T03:25:56.139Z,4.00
2023-08-05T03:26:56.128Z,8.00
2023-08-05T03:27:56.145Z,4.00
2023-08-05T03:28:56.815Z,4.00
2023-08-05T03:29:56.785Z,8.00
2023-08-05T03:30:56.772Z,12.00
2023-08-05T03:31:56.815Z,8.00
2023-08-05T03:32:57.134Z,12.00
2023-08-05T03:33:56.736Z,16.00
2023-08-05T03:34:56.053Z,16.00
2023-08-05T03:35:56.732Z,16.00
2023-08-05T03:36:56.687Z,20.00
2023-08-05T03:37:56.013Z,24.00
2023-08-05T03:38:56.691Z,24.00
2023-08-05T03:39:55.986Z,32.00
2023-08-05T03:40:56.648Z,32.00
2023-08-05T03:41:56.633Z,36.00
2023-08-05T03:42:55.952Z,40.00
2023-08-05T03:43:55.951Z,48.00
2023-08-05T03:44:55.949Z,52.00
2023-08-05T03:45:56.639Z,60.00
2023-08-05T03:46:55.924Z,68.00
2023-08-05T03:47:56.646Z,72.00
2023-08-05T03:48:55.886Z,84.00
2023-08-05T03:49:55.879Z,92.00
2023-08-05T03:50:56.543Z,100.00
2023-08-05T03:51:56.546Z,108.00
2023-08-05T03:52:56.543Z,124.00
2023-08-05T03:53:56.531Z,132.00
2023-08-05T03:54:56.499Z,144.00
2023-08-05T03:55:55.831Z,160.00
2023-08-05T03:56:56.490Z,172.00
2023-08-05T03:57:56.475Z,184.00
2023-08-05T03:58:56.476Z,200.00
2023-08-05T03:59:56.443Z,220.00
2023-08-05T04:00:55.772Z,240.00
2023-08-05T04:01:55.746Z,260.00
2023-08-05T04:02:56.477Z,276.00
2023-08-05T04:03:56.469Z,296.00
2023-08-05T04:04:56.394Z,316.00
2023-08-05T04:05:56.398Z,332.00
2023-08-05T04:06:55.699Z,348.00
2023-08-05T04:07:55.687Z,364.00
2023-08-05T04:08:55.691Z,368.00
2023-08-05T04:09:56.336Z,360.00
2023-08-05T04:10:56.352Z,356.00
2023-08-05T04:11:56.336Z,356.00
2023-08-05T04:12:55.633Z,360.00
2023-08-05T04:13:55.701Z,376.00
2023-08-05T04:14:55.661Z,396.00
2023-08-05T04:15:56.446Z,420.00
2023-08-05T04:16:56.276Z,436.00
2023-08-05T04:17:55.579Z,456.00
2023-08-05T04:18:56.237Z,468.00
2023-08-05T04:19:55.618Z,484.00
2023-08-05T04:20:56.235Z,500.00
2023-08-05T04:21:56.235Z,528.00
2023-08-05T04:22:55.552Z,556.00
2023-08-05T04:23:56.188Z,588.00
2023-08-05T04:24:55.521Z,620.00
2023-08-05T04:25:56.179Z,652.00
2023-08-05T04:26:56.168Z,692.00
2023-08-05T04:27:56.168Z,716.00
2023-08-05T04:28:56.183Z,756.00
2023-08-05T04:29:56.138Z,812.00
2023-08-05T04:30:55.444Z,860.00
2023-08-05T04:31:56.117Z,908.00
2023-08-05T04:32:55.535Z,964.00
2023-08-05T04:33:56.104Z,1008.00
2023-08-05T04:34:55.390Z,1056.00
2023-08-05T04:35:55.398Z,1060.00
2023-08-05T04:36:55.457Z,784.00
2023-08-05T04:37:55.400Z,640.00
2023-08-05T04:38:56.036Z,672.00
2023-08-05T04:39:56.034Z,664.00
2023-08-05T04:40:56.028Z,664.00
2023-08-05T04:41:55.985Z,680.00
2023-08-05T04:42:55.998Z,712.00
2023-08-05T04:43:56.001Z,748.00
2023-08-05T04:44:55.283Z,772.00
2023-08-05T04:45:56.019Z,776.00
2023-08-05T04:46:55.930Z,832.00
2023-08-05T04:47:55.315Z,860.00
2023-08-05T04:48:55.924Z,856.00
2023-08-05T04:49:55.927Z,856.00
2023-08-05T04:50:55.884Z,876.00
2023-08-05T04:51:55.876Z,896.00
2023-08-05T04:52:55.885Z,940.00
2023-08-05T04:53:55.874Z,952.00
2023-08-05T04:54:55.870Z,1016.00
2023-08-05T04:55:55.840Z,1032.00
2023-08-05T04:56:55.836Z,1076.00
2023-08-05T04:57:55.831Z,1172.00
2023-08-05T04:58:55.141Z,1248.00
2023-08-05T04:59:55.794Z,1300.00
2023-08-05T05:00:55.822Z,1340.00
2023-08-05T05:01:55.791Z,1392.00
2023-08-05T05:02:55.838Z,1544.00
2023-08-05T05:03:57.499Z,1692.00
2023-08-05T05:04:56.033Z,1772.00
2023-08-05T05:05:55.740Z,1852.00
2023-08-05T05:06:57.484Z,1952.00
2023-08-05T05:07:55.727Z,1996.00
2023-08-05T05:08:55.749Z,2080.00
2023-08-05T05:09:55.729Z,2184.00
2023-08-05T05:10:55.018Z,2344.00
2023-08-05T05:11:55.715Z,2452.00
2023-08-05T05:12:55.682Z,2600.00
2023-08-05T05:13:54.981Z,2648.00
2023-08-05T05:14:54.998Z,2836.00
2023-08-05T05:15:54.979Z,2952.00
2023-08-05T05:16:55.629Z,3036.00
2023-08-05T05:17:55.655Z,3188.00
2023-08-05T05:18:54.941Z,3332.00
2023-08-05T05:19:55.597Z,3624.00
2023-08-05T05:20:55.580Z,3536.00
2023-08-05T05:21:56.216Z,3732.00
2023-08-05T05:22:55.560Z,3884.00
2023-08-05T05:23:55.531Z,3704.00
2023-08-05T05:24:55.541Z,3316.00
2023-08-05T05:25:55.553Z,3268.00
2023-08-05T05:26:55.519Z,3136.00
2023-08-05T05:27:55.486Z,2908.00
2023-08-05T05:28:57.282Z,2740.00
2023-08-05T05:29:55.491Z,2732.00
2023-08-05T05:30:55.532Z,2800.00
2023-08-05T05:31:55.477Z,2792.00
2023-08-05T05:32:55.470Z,2916.00
2023-08-05T05:33:54.770Z,2944.00
2023-08-05T05:34:55.434Z,3180.00
2023-08-05T05:35:55.419Z,3448.00
2023-08-05T05:36:55.414Z,3684.00
2023-08-05T05:37:55.384Z,3920.00
2023-08-05T05:38:55.386Z,4200.00
2023-08-05T05:39:55.373Z,4292.00
2023-08-05T05:40:55.377Z,4420.00
2023-08-05T05:41:55.350Z,4700.00
2023-08-05T05:42:55.337Z,5196.00
2023-08-05T05:43:55.337Z,5636.00
2023-08-05T05:44:55.329Z,5800.00
2023-08-05T05:45:55.307Z,6108.00
2023-08-05T05:46:55.402Z,6324.00
2023-08-05T05:47:55.331Z,6660.00
2023-08-05T05:48:55.277Z,6772.00
2023-08-05T05:49:55.268Z,6788.00
2023-08-05T05:50:55.236Z,6884.00
2023-08-05T05:51:55.233Z,7008.00
2023-08-05T05:52:55.243Z,7172.00
2023-08-05T05:53:55.220Z,7308.00
2023-08-05T05:54:55.211Z,7476.00
2023-08-05T05:55:55.193Z,7956.00
2023-08-05T05:56:56.295Z,8608.00
2023-08-05T05:57:55.194Z,10656.00
2023-08-05T05:58:55.179Z,12044.00
2023-08-05T05:59:55.184Z,15872.00
2023-08-05T06:00:55.184Z,17568.00
2023-08-05T06:01:55.135Z,17120.00
2023-08-05T06:02:55.244Z,17792.00
2023-08-05T06:03:55.177Z,17920.00
2023-08-05T06:04:55.138Z,15904.00
2023-08-05T06:05:55.077Z,10436.00
2023-08-05T06:06:55.076Z,7628.00
2023-08-05T06:07:55.065Z,6580.00
2023-08-05T06:08:55.058Z,8384.00
2023-08-05T06:09:56.849Z,8408.00
2023-08-05T06:10:55.034Z,7716.00
2023-08-05T06:11:55.037Z,6020.00
2023-08-05T06:12:55.015Z,5432.00
2023-08-05T06:13:55.008Z,4940.00
2023-08-05T06:14:56.790Z,5020.00
2023-08-05T06:15:55.005Z,4724.00
2023-08-05T06:16:55.331Z,4700.00
2023-08-05T06:17:55.004Z,4920.00
2023-08-05T06:18:54.948Z,5428.00
2023-08-05T06:19:54.930Z,5956.00
2023-08-05T06:20:54.926Z,6436.00
2023-08-05T06:21:54.929Z,4968.00
2023-08-05T06:22:54.914Z,4912.00
2023-08-05T06:23:54.889Z,4812.00
2023-08-05T06:24:54.864Z,4832.00
2023-08-05T06:25:54.869Z,6068.00
2023-08-05T06:26:54.862Z,6984.00
2023-08-05T06:27:54.869Z,6256.00
2023-08-05T06:28:54.820Z,8196.00
2023-08-05T06:29:54.826Z,9860.00
2023-08-05T06:30:54.839Z,8136.00
2023-08-05T06:31:55.054Z,6312.00
2023-08-05T06:32:54.813Z,5576.00
2023-08-05T06:33:54.775Z,4524.00
2023-08-05T06:34:54.776Z,3900.00
2023-08-05T06:35:54.770Z,3776.00
2023-08-05T06:36:54.763Z,3884.00
2023-08-05T06:37:54.726Z,3920.00
2023-08-05T06:38:54.055Z,3808.00
2023-08-05T06:39:54.719Z,3712.00
2023-08-05T06:40:54.710Z,3656.00
2023-08-05T06:41:54.697Z,3684.00
2023-08-05T06:42:54.191Z,3696.00
2023-08-05T06:43:54.677Z,3748.00
2023-08-05T06:44:54.663Z,3948.00
2023-08-05T06:45:54.708Z,4164.00
2023-08-05T06:46:54.636Z,4432.00
2023-08-05T06:47:54.665Z,4656.00
2023-08-05T06:48:54.622Z,4972.00
2023-08-05T06:49:54.612Z,5396.00
2023-08-05T06:50:54.601Z,6196.00
2023-08-05T06:51:57.271Z,6756.00
2023-08-05T06:52:54.581Z,6768.00
2023-08-05T06:53:54.884Z,6604.00
2023-08-05T06:54:54.556Z,6328.00
2023-08-05T06:55:54.549Z,5984.00
2023-08-05T06:56:54.522Z,5820.00
2023-08-05T06:57:53.836Z,6312.00
2023-08-05T06:58:53.835Z,7192.00
2023-08-05T06:59:53.826Z,6656.00
2023-08-05T07:00:54.495Z,5760.00
2023-08-05T07:01:54.753Z,5064.00
2023-08-05T07:02:53.952Z,4924.00
2023-08-05T07:03:54.482Z,4808.00
2023-08-05T07:04:54.465Z,4564.00
2023-08-05T07:05:54.419Z,4340.00
2023-08-05T07:06:54.430Z,4192.00
2023-08-05T07:07:55.907Z,4084.00
2023-08-05T07:08:54.400Z,3888.00
2023-08-05T07:09:54.392Z,3672.00
2023-08-05T07:10:54.391Z,3536.00
2023-08-05T07:11:53.958Z,3416.00
2023-08-05T07:12:54.366Z,3412.00
2023-08-05T07:13:54.352Z,3532.00
2023-08-05T07:14:54.320Z,3748.00
2023-08-05T07:15:54.362Z,3984.00
2023-08-05T07:16:54.329Z,4312.00
2023-08-05T07:17:54.414Z,4572.00
2023-08-05T07:18:54.292Z,4872.00
2023-08-05T07:19:54.265Z,5260.00
2023-08-05T07:20:54.279Z,5852.00
2023-08-05T07:21:54.463Z,12492.00
2023-08-05T07:22:53.577Z,7472.00
2023-08-05T07:23:54.273Z,7084.00
2023-08-05T07:24:53.568Z,7828.00
2023-08-05T07:25:54.239Z,7944.00
2023-08-05T07:26:54.232Z,8484.00
2023-08-05T07:27:54.204Z,8960.00
2023-08-05T07:28:54.176Z,7424.00
2023-08-05T07:29:53.527Z,7080.00
2023-08-05T07:30:54.169Z,7064.00
2023-08-05T07:31:54.526Z,6644.00
2023-08-05T07:32:54.163Z,6372.00
2023-08-05T07:33:53.467Z,5980.00
2023-08-05T07:34:53.459Z,5672.00
2023-08-05T07:35:54.108Z,5472.00
2023-08-05T07:36:54.104Z,5472.00
2023-08-05T07:37:54.091Z,5820.00
2023-08-05T07:38:53.410Z,6104.00
2023-08-05T07:39:53.388Z,6556.00
2023-08-05T07:40:53.365Z,7188.00
2023-08-05T07:41:54.088Z,7520.00
2023-08-05T07:42:54.019Z,7908.00
2023-08-05T07:43:54.004Z,8284.00
2023-08-05T07:44:53.416Z,11652.00
2023-08-05T07:45:54.066Z,10244.00
2023-08-05T07:46:53.310Z,8768.00
2023-08-05T07:47:55.789Z,9048.00
2023-08-05T07:48:53.273Z,10444.00
2023-08-05T07:49:53.956Z,11608.00
2023-08-05T07:50:53.290Z,13984.00
2023-08-05T07:51:53.451Z,12752.00
2023-08-05T07:52:53.262Z,13576.00
2023-08-05T07:53:53.911Z,12720.00
2023-08-05T07:54:53.903Z,15160.00
2023-08-05T07:55:53.887Z,13468.00
2023-08-05T07:56:53.862Z,22240.00
2023-08-05T07:57:53.864Z,23424.00
2023-08-05T07:58:53.854Z,29632.00
2023-08-05T07:59:53.846Z,50464.00
2023-08-05T08:00:53.838Z,48768.00
2023-08-05T08:01:54.046Z,39296.00
2023-08-05T08:02:53.157Z,48864.00
2023-08-05T08:03:53.157Z,30848.00
2023-08-05T08:04:53.114Z,25056.00
2023-08-05T08:05:53.132Z,22208.00
2023-08-05T08:06:53.758Z,12492.00
2023-08-05T08:07:53.773Z,14360.00
2023-08-05T08:08:53.124Z,11508.00
2023-08-05T08:09:53.743Z,21792.00
2023-08-05T08:10:53.708Z,29376.00
2023-08-05T08:11:53.774Z,16304.00
2023-08-05T08:12:53.750Z,32352.00
2023-08-05T08:13:53.704Z,53792.00
2023-08-05T08:14:53.684Z,56544.00
2023-08-05T08:15:53.068Z,23712.00
2023-08-05T08:16:53.662Z,18048.00
2023-08-05T08:17:53.680Z,40288.00
2023-08-05T08:18:55.411Z,31904.00
2023-08-05T08:19:55.385Z,13764.00
2023-08-05T08:20:52.963Z,14720.00
2023-08-05T08:21:53.197Z,13396.00
2023-08-05T08:22:52.930Z,14556.00
2023-08-05T08:23:53.590Z,11232.00
2023-08-05T08:24:52.914Z,10428.00
2023-08-05T08:25:53.584Z,9648.00
2023-08-05T08:26:52.877Z,11524.00
2023-08-05T08:27:52.867Z,18688.00
2023-08-05T08:28:52.872Z,27744.00
2023-08-05T08:29:53.513Z,13312.00
2023-08-05T08:30:53.530Z,11212.00
2023-08-05T08:31:53.752Z,12540.00
2023-08-05T08:32:52.835Z,21184.00
2023-08-05T08:33:52.821Z,14740.00
2023-08-05T08:34:53.452Z,10524.00
2023-08-05T08:35:52.775Z,9044.00
2023-08-05T08:36:53.452Z,8544.00
2023-08-05T08:37:53.460Z,8000.00
2023-08-05T08:38:52.774Z,7636.00
2023-08-05T08:39:52.752Z,7716.00
2023-08-05T08:40:53.410Z,7596.00
2023-08-05T08:41:53.557Z,7536.00
2023-08-05T08:42:52.708Z,7164.00
2023-08-05T08:43:52.743Z,6948.00
2023-08-05T08:44:52.680Z,6688.00
2023-08-05T08:45:53.447Z,6036.00
2023-08-05T08:46:52.672Z,5804.00
2023-08-05T08:47:53.355Z,5876.00
2023-08-05T08:48:52.656Z,5788.00
2023-08-05T08:49:53.316Z,5796.00
2023-08-05T08:50:52.613Z,6364.00
2023-08-05T08:51:53.422Z,7008.00
2023-08-05T08:52:53.264Z,8780.00
2023-08-05T08:53:53.267Z,9828.00
2023-08-05T08:54:53.256Z,10232.00
2023-08-05T08:55:53.254Z,9964.00
2023-08-05T08:56:52.548Z,9912.00
2023-08-05T08:57:52.555Z,9940.00
2023-08-05T08:58:53.218Z,9916.00
2023-08-05T08:59:53.199Z,11368.00
2023-08-05T09:00:53.268Z,13592.00
2023-08-05T09:01:53.467Z,13416.00
2023-08-05T09:02:52.589Z,12292.00
2023-08-05T09:03:52.504Z,12464.00
2023-08-05T09:04:53.146Z,13608.00
2023-08-05T09:05:53.143Z,11488.00
2023-08-05T09:06:53.120Z,10952.00
2023-08-05T09:07:53.121Z,11636.00
2023-08-05T09:08:53.120Z,12112.00
2023-08-05T09:09:53.097Z,12052.00
2023-08-05T09:10:53.080Z,13588.00
2023-08-05T09:11:53.280Z,11928.00
2023-08-05T09:12:53.069Z,11436.00
2023-08-05T09:13:52.372Z,11472.00
2023-08-05T09:14:52.359Z,11160.00
2023-08-05T09:15:52.387Z,11152.00
2023-08-05T09:16:53.001Z,11328.00
2023-08-05T09:17:53.026Z,10936.00
2023-08-05T09:18:52.313Z,10848.00
2023-08-05T09:19:52.984Z,10800.00
2023-08-05T09:20:53.214Z,11128.00
2023-08-05T09:21:53.368Z,12936.00
2023-08-05T09:22:52.954Z,12220.00
2023-08-05T09:23:52.252Z,12992.00
2023-08-05T09:24:52.256Z,10684.00
2023-08-05T09:25:52.260Z,10400.00
2023-08-05T09:26:52.909Z,10132.00
2023-08-05T09:27:52.901Z,10428.00
2023-08-05T09:28:52.212Z,11252.00
2023-08-05T09:29:52.861Z,11628.00
2023-08-05T09:30:53.111Z,12300.00
2023-08-05T09:31:52.282Z,10000.00
2023-08-05T09:32:52.918Z,8956.00
2023-08-05T09:33:52.149Z,8772.00
2023-08-05T09:34:52.159Z,9116.00
2023-08-05T09:35:52.145Z,8656.00
2023-08-05T09:36:52.112Z,8112.00
2023-08-05T09:37:52.106Z,7844.00
2023-08-05T09:38:52.094Z,7660.00
2023-08-05T09:39:52.780Z,8480.00
2023-08-05T09:40:52.078Z,8724.00
2023-08-05T09:41:52.259Z,8652.00
2023-08-05T09:42:52.738Z,7400.00
2023-08-05T09:43:52.113Z,7344.00
2023-08-05T09:44:52.699Z,7044.00
2023-08-05T09:45:52.015Z,6756.00
2023-08-05T09:46:52.068Z,7200.00
2023-08-05T09:47:52.060Z,7484.00
2023-08-05T09:48:52.006Z,10456.00
2023-08-05T09:49:51.990Z,10156.00
2023-08-05T09:50:52.692Z,10220.00
2023-08-05T09:51:52.231Z,9568.00
2023-08-05T09:52:52.616Z,9256.00
2023-08-05T09:53:51.980Z,8068.00
2023-08-05T09:54:52.869Z,9092.00
2023-08-05T09:55:51.902Z,8648.00
2023-08-05T09:56:52.589Z,9468.00
2023-08-05T09:57:52.612Z,8128.00
2023-08-05T09:58:51.897Z,9168.00
2023-08-05T09:59:51.881Z,8620.00
2023-08-05T10:00:51.882Z,10532.00
2023-08-05T10:01:52.061Z,8740.00
2023-08-05T10:02:52.548Z,7492.00
2023-08-05T10:03:52.514Z,7096.00
2023-08-05T10:04:51.857Z,6580.00
2023-08-05T10:05:51.802Z,6456.00
2023-08-05T10:06:51.806Z,6708.00
2023-08-05T10:07:54.254Z,7132.00
2023-08-05T10:08:51.780Z,7268.00
2023-08-05T10:09:52.458Z,6836.00
2023-08-05T10:10:51.747Z,6476.00
2023-08-05T10:11:52.626Z,6148.00
2023-08-05T10:12:51.748Z,6232.00
2023-08-05T10:13:51.716Z,6604.00
2023-08-05T10:14:51.715Z,6592.00
2023-08-05T10:15:52.417Z,6116.00
2023-08-05T10:16:52.396Z,5948.00
2023-08-05T10:17:51.720Z,6112.00
2023-08-05T10:18:52.363Z,5760.00
2023-08-05T10:19:51.676Z,5436.00
2023-08-05T10:20:52.344Z,5480.00
2023-08-05T10:21:52.495Z,5668.00
2023-08-05T10:22:52.305Z,5736.00
2023-08-05T10:23:52.294Z,5832.00
2023-08-05T10:24:52.289Z,5908.00
2023-08-05T10:25:52.292Z,5276.00
2023-08-05T10:26:52.266Z,4572.00
2023-08-05T10:27:52.252Z,4272.00
2023-08-05T10:28:52.244Z,4132.00
2023-08-05T10:29:54.002Z,4216.00
2023-08-05T10:30:52.232Z,4176.00
2023-08-05T10:31:52.383Z,4184.00
2023-08-05T10:32:52.259Z,4508.00
2023-08-05T10:33:51.520Z,4548.00
2023-08-05T10:34:52.160Z,4208.00
2023-08-05T10:35:51.498Z,3540.00
2023-08-05T10:36:52.168Z,3088.00
2023-08-05T10:37:52.147Z,2900.00
2023-08-05T10:38:52.148Z,2892.00
2023-08-05T10:39:52.112Z,2872.00
2023-08-05T10:40:52.118Z,2604.00
2023-08-05T10:41:52.343Z,2320.00
2023-08-05T10:42:51.395Z,2140.00
2023-08-05T10:43:52.062Z,2068.00
2023-08-05T10:44:52.060Z,2004.00
2023-08-05T10:45:51.367Z,1944.00
2023-08-05T10:46:51.356Z,2000.00
2023-08-05T10:47:52.044Z,2280.00
2023-08-05T10:48:51.364Z,2756.00
2023-08-05T10:49:51.350Z,3836.00
2023-08-05T10:50:52.005Z,5012.00
2023-08-05T10:51:51.466Z,7792.00
2023-08-05T10:52:51.984Z,8016.00
2023-08-05T10:53:51.303Z,8388.00
2023-08-05T10:54:51.275Z,7908.00
2023-08-05T10:55:51.277Z,7812.00
2023-08-05T10:56:51.312Z,9876.00
2023-08-05T10:57:51.921Z,8912.00
2023-08-05T10:58:51.252Z,8308.00
2023-08-05T10:59:51.250Z,8072.00
2023-08-05T11:00:51.976Z,7208.00
2023-08-05T11:01:54.496Z,6828.00
2023-08-05T11:02:51.968Z,6400.00
2023-08-05T11:03:51.254Z,6068.00
2023-08-05T11:04:51.893Z,5552.00
2023-08-05T11:05:51.152Z,4848.00
2023-08-05T11:06:51.831Z,4540.00
2023-08-05T11:07:51.797Z,4284.00
2023-08-05T11:08:51.812Z,4212.00
2023-08-05T11:09:51.118Z,4660.00
2023-08-05T11:10:51.103Z,5428.00
2023-08-05T11:11:52.123Z,5612.00
2023-08-05T11:12:53.536Z,6460.00
2023-08-05T11:13:51.754Z,7748.00
2023-08-05T11:14:51.800Z,8156.00
2023-08-05T11:15:51.756Z,7864.00
2023-08-05T11:16:51.706Z,7248.00
2023-08-05T11:17:51.068Z,6508.00
2023-08-05T11:18:51.700Z,5804.00
2023-08-05T11:19:51.715Z,5216.00
2023-08-05T11:20:51.677Z,4996.00
2023-08-05T11:21:51.955Z,5208.00
2023-08-05T11:22:51.666Z,5736.00
2023-08-05T11:23:51.648Z,6244.00
2023-08-05T11:24:50.962Z,6464.00
2023-08-05T11:25:51.609Z,7100.00
2023-08-05T11:26:50.941Z,6916.00
2023-08-05T11:27:51.603Z,7316.00
2023-08-05T11:28:51.601Z,7472.00
2023-08-05T11:30:02.749Z,7216.00
2023-08-05T11:30:52.554Z,7392.00
2023-08-05T11:31:51.911Z,7456.00
2023-08-05T11:32:51.646Z,6984.00
2023-08-05T11:33:51.536Z,6932.00
2023-08-05T11:34:51.505Z,6868.00
2023-08-05T11:35:51.498Z,7108.00
2023-08-05T11:36:51.503Z,7364.00
2023-08-05T11:37:50.831Z,7540.00
2023-08-05T11:38:51.483Z,7696.00
2023-08-05T11:39:50.847Z,7744.00
2023-08-05T11:40:51.495Z,7308.00
2023-08-05T11:41:51.740Z,7124.00
2023-08-05T11:42:50.753Z,7168.00
2023-08-05T11:43:51.425Z,7388.00
2023-08-05T11:44:50.759Z,7604.00
2023-08-05T11:45:51.427Z,7984.00
2023-08-05T11:46:59.488Z,7916.00
2023-08-05T11:47:51.727Z,8124.00
2023-08-05T11:48:51.355Z,7948.00
2023-08-05T11:49:50.736Z,7652.00
2023-08-05T11:50:51.349Z,7444.00
2023-08-05T11:51:51.889Z,7380.00
2023-08-05T11:52:51.329Z,7196.00
2023-08-05T11:53:50.651Z,6904.00
2023-08-05T11:54:50.622Z,6592.00
2023-08-05T11:55:50.636Z,6380.00
2023-08-05T11:56:50.599Z,6436.00
2023-08-05T11:57:51.282Z,6160.00
2023-08-05T11:58:51.246Z,6216.00
2023-08-05T11:59:51.259Z,6508.00
2023-08-05T12:00:51.250Z,6452.00
2023-08-05T12:01:50.799Z,6328.00
2023-08-05T12:02:51.269Z,6276.00
2023-08-05T12:03:51.231Z,6388.00
2023-08-05T12:04:51.224Z,6508.00
2023-08-05T12:05:50.494Z,6660.00
2023-08-05T12:06:51.178Z,6508.00
2023-08-05T12:07:51.175Z,6448.00
2023-08-05T12:08:51.147Z,6544.00
2023-08-05T12:09:51.144Z,6268.00
2023-08-05T12:10:52.955Z,6060.00
2023-08-05T12:11:51.358Z,5880.00
2023-08-05T12:12:51.099Z,5576.00
2023-08-05T12:13:51.113Z,5348.00
2023-08-05T12:14:50.422Z,5140.00
2023-08-05T12:15:51.104Z,4968.00
2023-08-05T12:16:50.836Z,4880.00
2023-08-05T12:17:50.549Z,4640.00
2023-08-05T12:18:50.356Z,4408.00
2023-08-05T12:19:50.378Z,4376.00
2023-08-05T12:20:50.334Z,4372.00
2023-08-05T12:21:51.003Z,4232.00
2023-08-05T12:22:52.589Z,4036.00
2023-08-05T12:23:50.313Z,3832.00
2023-08-05T12:24:50.341Z,3940.00
2023-08-05T12:25:50.986Z,4396.00